Log in

Login to your account

Username *
Password *
Remember Me
User Registration
User Profile
(optional)
Cancel

Nous contacter

 Téléphone : +33 (0)4 79 54 41 81

Coordonnées détaillées et accès : cliquez ici

 
LFLB °C
    Ferienhaus Ostsee
[source: ADDS]
METAR
LFLB 292030Z AUTO 01006KT 340V050 9999 BKN046 BKN058 02/M03 Q1020 =
TAF LFLB 291400Z 2915/3015 34006KT 9999 BKN035 BECMG 2918/2921 VRB02KT BECMG 2922/3002 SCT035 PROB40 TEMPO 3003/3007 3000 BR
TAF
TAF LFLB 291400Z 2915/3015 34006KT 9999 BKN035 BECMG 2918/2921 VRB02KT BECMG 2922/3002 SCT035 PROB40 TEMPO 3003/3007 3000 BR =
SR / SS: 06:54 / 15:55 UTC (Lever/Coucher du soleil le 2021-11-29)
JSN Boot template designed by JoomlaShine.com